createdAt,value
2023-03-29T00:00:35.817Z,3.85
2023-03-29T00:03:04.327Z,3.60
2023-03-29T00:05:35.189Z,3.95
2023-03-29T00:08:04.345Z,4.43
2023-03-29T00:10:34.173Z,3.85
2023-03-29T00:13:02.376Z,3.90
2023-03-29T00:15:30.098Z,4.10
2023-03-29T00:17:58.092Z,3.55
2023-03-29T00:20:25.543Z,3.55
2023-03-29T00:22:53.053Z,3.70
2023-03-29T00:25:20.505Z,4.05
2023-03-29T00:27:48.032Z,3.83
2023-03-29T00:30:16.512Z,4.22
2023-03-29T00:32:44.776Z,3.58
2023-03-29T00:35:12.701Z,3.90
2023-03-29T00:37:41.227Z,4.10
2023-03-29T00:40:11.775Z,4.20
2023-03-29T00:42:39.728Z,4.30
2023-03-29T00:45:10.357Z,4.20
2023-03-29T00:47:58.135Z,3.67
2023-03-29T00:50:43.777Z,3.70
2023-03-29T00:53:18.387Z,3.90
2023-03-29T00:55:57.689Z,3.58
2023-03-29T00:58:51.886Z,3.90
2023-03-29T01:01:30.409Z,4.45
2023-03-29T01:04:09.598Z,3.28
2023-03-29T01:06:43.381Z,3.75
2023-03-29T01:09:14.950Z,3.42
2023-03-29T01:11:57.139Z,3.63
2023-03-29T01:14:48.168Z,3.38
2023-03-29T01:17:16.180Z,3.65
2023-03-29T01:19:58.018Z,3.50
2023-03-29T01:25:32.419Z,3.85
2023-03-29T01:28:11.671Z,3.63
2023-03-29T01:30:48.540Z,3.28
2023-03-29T01:33:24.026Z,3.03
2023-03-29T01:36:02.569Z,3.45
2023-03-29T01:38:49.788Z,3.42
2023-03-29T01:41:17.604Z,3.20
2023-03-29T01:44:05.836Z,2.83
2023-03-29T01:46:48.061Z,3.10
2023-03-29T01:49:42.251Z,3.00
2023-03-29T01:52:25.279Z,3.10
2023-03-29T01:55:18.536Z,3.58
2023-03-29T01:57:49.112Z,3.00
2023-03-29T02:00:27.590Z,3.38
2023-03-29T02:03:03.239Z,3.25
2023-03-29T02:05:32.687Z,3.92
2023-03-29T02:08:05.789Z,3.33
2023-03-29T02:10:35.863Z,3.63
2023-03-29T02:13:05.630Z,3.33
2023-03-29T02:15:34.094Z,3.15
2023-03-29T02:18:04.311Z,3.78
2023-03-29T02:20:47.262Z,3.50
2023-03-29T02:23:24.376Z,4.05
2023-03-29T02:25:53.890Z,3.72
2023-03-29T02:28:25.092Z,3.55
2023-03-29T02:31:18.754Z,3.13
2023-03-29T02:34:22.382Z,3.45
2023-03-29T02:36:55.444Z,3.90
2023-03-29T02:39:27.759Z,3.10
2023-03-29T02:41:57.053Z,4.03
2023-03-29T02:44:29.870Z,3.65
2023-03-29T02:47:12.387Z,3.78
2023-03-29T02:49:40.537Z,3.53
2023-03-29T02:52:16.040Z,3.90
2023-03-29T02:54:48.328Z,3.58
2023-03-29T02:57:15.998Z,3.53
2023-03-29T02:59:44.999Z,4.25
2023-03-29T03:02:13.723Z,3.90
2023-03-29T03:04:43.231Z,4.20
2023-03-29T03:07:10.711Z,3.53
2023-03-29T03:09:38.275Z,3.67
2023-03-29T03:12:06.358Z,3.70
2023-03-29T03:14:34.426Z,3.97
2023-03-29T03:17:04.435Z,3.80
2023-03-29T03:19:32.957Z,3.70
2023-03-29T03:22:01.687Z,3.67
2023-03-29T03:24:29.203Z,3.60
2023-03-29T03:26:58.109Z,3.70
2023-03-29T03:29:26.144Z,3.83
2023-03-29T03:31:59.592Z,4.07
2023-03-29T03:34:58.962Z,4.20
2023-03-29T03:37:28.216Z,3.92
2023-03-29T03:39:56.547Z,4.05
2023-03-29T03:42:28.509Z,3.88
2023-03-29T03:44:57.265Z,3.90
2023-03-29T03:47:43.460Z,4.10
2023-03-29T03:50:20.441Z,4.20
2023-03-29T03:52:48.125Z,4.13
2023-03-29T03:55:16.372Z,4.10
2023-03-29T03:58:03.906Z,4.10
2023-03-29T04:00:31.378Z,4.50
2023-03-29T04:03:19.731Z,4.00
2023-03-29T04:05:48.672Z,4.30
2023-03-29T04:08:19.145Z,4.03
2023-03-29T04:11:07.586Z,4.28
2023-03-29T04:13:38.146Z,4.18
2023-03-29T04:16:21.465Z,4.05
2023-03-29T04:18:49.244Z,4.20
2023-03-29T04:21:18.898Z,4.10
2023-03-29T04:23:48.816Z,3.50
2023-03-29T04:26:17.876Z,3.22
2023-03-29T04:28:48.662Z,3.38
2023-03-29T04:31:21.574Z,3.60
2023-03-29T04:34:08.305Z,3.55
2023-03-29T04:36:36.072Z,3.30
2023-03-29T04:39:07.914Z,3.45
2023-03-29T04:41:35.995Z,3.45
2023-03-29T04:44:08.418Z,3.65
2023-03-29T04:46:38.805Z,3.60
2023-03-29T04:49:29.432Z,3.20
2023-03-29T04:51:57.105Z,3.35
2023-03-29T04:54:28.652Z,3.15
2023-03-29T04:57:18.936Z,3.45
2023-03-29T04:59:46.836Z,3.25
2023-03-29T05:02:24.109Z,3.10
2023-03-29T05:04:52.166Z,3.58
2023-03-29T05:07:20.028Z,3.20
2023-03-29T05:09:48.571Z,3.15
2023-03-29T05:12:16.235Z,3.35
2023-03-29T05:14:54.300Z,3.33
2023-03-29T05:17:27.543Z,3.73
2023-03-29T05:20:01.313Z,3.67
2023-03-29T05:22:29.784Z,3.25
2023-03-29T05:24:57.638Z,3.47
2023-03-29T05:27:25.476Z,3.20
2023-03-29T05:30:01.985Z,3.25
2023-03-29T05:32:38.236Z,3.00
2023-03-29T05:35:08.483Z,3.42
2023-03-29T05:37:36.068Z,3.22
2023-03-29T05:40:07.982Z,2.83
2023-03-29T05:42:48.055Z,3.30
2023-03-29T05:45:20.337Z,3.15
2023-03-29T05:47:47.945Z,3.40
2023-03-29T05:50:15.738Z,3.33
2023-03-29T05:52:43.811Z,3.53
2023-03-29T05:55:12.295Z,3.53
2023-03-29T05:57:40.188Z,3.22
2023-03-29T06:00:19.622Z,3.50
2023-03-29T06:02:47.341Z,3.70
2023-03-29T06:05:16.221Z,3.38
2023-03-29T06:08:01.155Z,3.53
2023-03-29T06:10:47.328Z,3.25
2023-03-29T06:13:28.098Z,3.58
2023-03-29T06:15:55.753Z,3.42
2023-03-29T06:18:25.969Z,3.30
2023-03-29T06:20:53.822Z,3.33
2023-03-29T06:23:22.525Z,3.60
2023-03-29T06:25:53.422Z,3.40
2023-03-29T06:28:21.714Z,3.73
2023-03-29T06:30:50.244Z,3.63
2023-03-29T06:33:18.792Z,3.47
2023-03-29T06:35:54.148Z,3.42
2023-03-29T06:38:28.578Z,3.70
2023-03-29T06:41:08.361Z,3.33
2023-03-29T06:43:56.070Z,3.20
2023-03-29T06:46:25.792Z,4.10
2023-03-29T06:49:00.036Z,3.67
2023-03-29T06:51:37.898Z,3.67
2023-03-29T06:54:05.518Z,4.32
2023-03-29T06:56:34.158Z,3.88
2023-03-29T06:59:09.397Z,3.55
2023-03-29T07:02:17.596Z,3.50
2023-03-29T07:05:06.747Z,3.97
2023-03-29T07:08:00.193Z,3.50
2023-03-29T07:10:54.189Z,4.20
2023-03-29T07:13:30.595Z,3.45
2023-03-29T07:16:00.088Z,3.17
2023-03-29T07:18:46.854Z,3.53
2023-03-29T07:21:25.394Z,3.88
2023-03-29T07:23:53.025Z,3.83
2023-03-29T07:26:28.958Z,4.00
2023-03-29T07:29:00.237Z,3.65
2023-03-29T07:31:29.679Z,4.10
2023-03-29T07:34:13.420Z,4.65
2023-03-29T07:36:43.692Z,4.63
2023-03-29T07:39:12.934Z,4.10
2023-03-29T07:41:44.133Z,3.83
2023-03-29T07:44:13.992Z,3.97
2023-03-29T07:46:43.265Z,4.18
2023-03-29T07:49:10.819Z,3.90
2023-03-29T07:51:38.517Z,3.90
2023-03-29T07:54:09.966Z,4.38
2023-03-29T07:56:45.844Z,4.18
2023-03-29T07:59:14.060Z,4.90
2023-03-29T08:01:46.058Z,4.25
2023-03-29T08:04:26.581Z,5.05
2023-03-29T08:07:13.617Z,4.63
2023-03-29T08:10:20.046Z,4.97
2023-03-29T08:13:08.389Z,4.80
2023-03-29T08:15:48.435Z,4.47
2023-03-29T08:18:25.060Z,4.40
2023-03-29T08:20:52.672Z,5.70
2023-03-29T08:23:20.258Z,4.50
2023-03-29T08:26:22.965Z,4.68
2023-03-29T08:28:52.155Z,4.95
2023-03-29T08:31:21.467Z,4.63
2023-03-29T08:33:49.115Z,4.68
2023-03-29T08:36:36.920Z,5.47
2023-03-29T08:39:11.567Z,4.70
2023-03-29T08:42:04.594Z,5.10
2023-03-29T08:44:49.888Z,5.07
2023-03-29T08:47:40.344Z,5.28
2023-03-29T08:50:14.697Z,5.35
2023-03-29T08:52:57.554Z,5.00
2023-03-29T08:55:50.698Z,5.53
2023-03-29T08:58:38.466Z,6.28
2023-03-29T09:01:09.251Z,6.23
2023-03-29T09:04:28.372Z,5.15
2023-03-29T09:07:10.822Z,5.70
2023-03-29T09:09:46.586Z,6.03
2023-03-29T09:13:02.548Z,6.57
2023-03-29T09:15:57.908Z,6.03
2023-03-29T09:19:19.880Z,6.00
2023-03-29T09:22:24.234Z,5.57
2023-03-29T09:25:11.553Z,5.45
2023-03-29T09:27:50.355Z,5.60
2023-03-29T09:30:50.738Z,5.78
2023-03-29T09:33:30.469Z,5.40
2023-03-29T09:37:02.927Z,6.07
2023-03-29T09:39:39.569Z,5.60
2023-03-29T09:42:14.533Z,5.53
2023-03-29T09:44:50.378Z,5.40
2023-03-29T09:47:40.758Z,5.88
2023-03-29T09:50:32.780Z,5.20
2023-03-29T09:53:05.610Z,5.45
2023-03-29T09:55:40.680Z,5.93
2023-03-29T09:58:46.617Z,4.80
2023-03-29T10:01:20.272Z,6.18
2023-03-29T10:03:53.662Z,6.20
2023-03-29T10:06:26.785Z,6.25
2023-03-29T10:08:59.300Z,6.65
2023-03-29T10:11:38.518Z,6.03
2023-03-29T10:14:16.753Z,6.28
2023-03-29T10:16:48.198Z,6.25
2023-03-29T10:19:35.104Z,5.50
2023-03-29T10:22:19.852Z,5.57
2023-03-29T10:24:52.232Z,6.30
2023-03-29T10:27:28.209Z,6.30
2023-03-29T10:29:59.567Z,6.47
2023-03-29T10:32:35.121Z,6.60
2023-03-29T10:35:29.463Z,6.85
2023-03-29T10:37:59.446Z,6.65
2023-03-29T10:40:35.742Z,6.55
2023-03-29T10:43:27.224Z,6.40
2023-03-29T10:46:08.197Z,6.75
2023-03-29T10:48:36.679Z,6.73
2023-03-29T10:51:05.994Z,6.82
2023-03-29T10:53:38.218Z,7.10
2023-03-29T10:56:40.275Z,6.22
2023-03-29T10:59:27.342Z,7.03
2023-03-29T11:02:13.411Z,7.28
2023-03-29T11:05:18.492Z,7.30
2023-03-29T11:07:57.940Z,7.65
2023-03-29T11:10:43.701Z,8.32
2023-03-29T11:13:48.597Z,8.27
2023-03-29T11:16:46.876Z,8.13
2023-03-29T11:19:29.474Z,7.65
2023-03-29T11:22:04.556Z,7.50
2023-03-29T11:25:23.558Z,7.10
2023-03-29T11:28:10.640Z,6.85
2023-03-29T11:30:59.783Z,6.97
2023-03-29T11:33:39.874Z,6.93
2023-03-29T11:36:50.424Z,7.75
2023-03-29T11:39:37.664Z,7.07
2023-03-29T11:42:17.958Z,6.75
2023-03-29T11:44:52.808Z,6.70
2023-03-29T11:47:27.416Z,6.65
2023-03-29T11:50:00.319Z,6.32
2023-03-29T11:52:37.919Z,6.40
2023-03-29T11:55:15.350Z,6.88
2023-03-29T11:58:09.882Z,6.25
2023-03-29T12:00:45.363Z,6.82
2023-03-29T12:03:37.266Z,6.55
2023-03-29T12:06:26.413Z,6.85
2023-03-29T12:09:03.917Z,5.78
2023-03-29T12:12:35.046Z,5.68
2023-03-29T12:15:15.427Z,6.05
2023-03-29T12:18:05.770Z,6.43
2023-03-29T12:20:39.811Z,6.07
2023-03-29T12:23:14.970Z,6.30
2023-03-29T12:26:29.314Z,5.80
2023-03-29T12:29:41.007Z,6.05
2023-03-29T12:33:14.323Z,5.65
2023-03-29T12:36:36.279Z,6.00
2023-03-29T12:39:42.089Z,6.30
2023-03-29T12:42:28.350Z,5.88
2023-03-29T12:45:49.285Z,6.20
2023-03-29T12:48:30.165Z,6.90
2023-03-29T12:51:04.870Z,6.10
2023-03-29T12:53:38.677Z,5.90
2023-03-29T12:56:08.727Z,6.13
2023-03-29T12:58:39.501Z,6.15
2023-03-29T13:01:38.405Z,6.10
2023-03-29T13:04:48.236Z,5.82
2023-03-29T13:07:30.806Z,5.40
2023-03-29T13:10:26.966Z,5.50
2023-03-29T13:12:54.746Z,5.45
2023-03-29T13:15:26.909Z,5.10
2023-03-29T13:18:16.932Z,5.25
2023-03-29T13:21:28.743Z,5.40
2023-03-29T13:24:19.012Z,5.05
2023-03-29T13:26:52.328Z,4.90
2023-03-29T13:29:56.068Z,5.18
2023-03-29T13:33:01.812Z,4.63
2023-03-29T13:35:57.438Z,4.68
2023-03-29T13:38:28.556Z,4.60
2023-03-29T13:41:23.128Z,4.63
2023-03-29T13:43:56.043Z,4.75
2023-03-29T13:46:41.515Z,4.78
2023-03-29T13:49:27.732Z,4.30
2023-03-29T13:52:15.178Z,4.20
2023-03-29T13:54:51.822Z,4.20
2023-03-29T13:57:33.161Z,4.32
2023-03-29T14:00:44.193Z,3.90
2023-03-29T14:03:17.540Z,3.65
2023-03-29T14:05:59.027Z,3.65
2023-03-29T14:08:51.528Z,3.70
2023-03-29T14:11:24.967Z,3.05
2023-03-29T14:14:02.851Z,3.25
2023-03-29T14:16:35.926Z,3.35
2023-03-29T14:19:11.870Z,3.05
2023-03-29T14:21:44.875Z,2.92
2023-03-29T14:24:22.437Z,2.60
2023-03-29T14:26:50.122Z,2.95
2023-03-29T14:29:18.278Z,3.10
2023-03-29T14:31:46.262Z,2.78
2023-03-29T14:34:18.373Z,2.35
2023-03-29T14:36:49.329Z,2.88
2023-03-29T14:39:21.159Z,2.55
2023-03-29T14:41:52.802Z,2.67
2023-03-29T14:44:23.917Z,2.60
2023-03-29T14:46:53.918Z,3.00
2023-03-29T14:49:23.305Z,2.90
2023-03-29T14:51:53.025Z,3.00
2023-03-29T14:54:30.072Z,3.13
2023-03-29T14:56:58.001Z,3.30
2023-03-29T14:59:36.769Z,3.38
2023-03-29T15:02:22.357Z,3.17
2023-03-29T15:05:00.157Z,3.38
2023-03-29T15:07:28.432Z,3.25
2023-03-29T15:10:00.789Z,3.35
2023-03-29T15:12:33.754Z,3.60
2023-03-29T15:15:02.632Z,3.45
2023-03-29T15:17:51.041Z,3.30
2023-03-29T15:20:29.321Z,3.50
2023-03-29T15:23:20.572Z,3.33
2023-03-29T15:25:58.376Z,3.88
2023-03-29T15:28:33.917Z,3.67
2023-03-29T15:31:11.186Z,3.13
2023-03-29T15:33:42.305Z,3.70
2023-03-29T15:36:13.572Z,3.10
2023-03-29T15:38:45.151Z,3.42
2023-03-29T15:41:14.388Z,3.53
2023-03-29T15:43:43.138Z,3.08
2023-03-29T15:46:13.887Z,2.60
2023-03-29T15:48:41.719Z,2.77
2023-03-29T15:51:15.075Z,3.10
2023-03-29T15:53:42.700Z,2.80
2023-03-29T15:56:18.343Z,2.60
2023-03-29T15:58:47.495Z,2.90
2023-03-29T16:01:37.231Z,2.25
2023-03-29T16:04:12.139Z,2.30
2023-03-29T16:06:41.014Z,2.42
2023-03-29T16:09:11.750Z,2.40
2023-03-29T16:11:42.027Z,2.30
2023-03-29T16:14:31.278Z,2.33
2023-03-29T16:17:00.962Z,2.60
2023-03-29T16:19:31.346Z,2.17
2023-03-29T16:22:04.556Z,2.75
2023-03-29T16:24:33.707Z,2.47
2023-03-29T16:27:02.694Z,2.83
2023-03-29T16:29:30.707Z,2.53
2023-03-29T16:31:58.664Z,3.28
2023-03-29T16:34:26.692Z,2.47
2023-03-29T16:36:54.499Z,3.00
2023-03-29T16:39:21.994Z,3.28
2023-03-29T16:41:50.337Z,2.75
2023-03-29T16:44:23.665Z,2.47
2023-03-29T16:46:57.391Z,2.80
2023-03-29T16:49:24.979Z,2.60
2023-03-29T16:51:52.635Z,2.38
2023-03-29T16:54:20.350Z,2.70
2023-03-29T16:56:48.252Z,2.85
2023-03-29T16:59:16.631Z,3.00
2023-03-29T17:01:44.456Z,3.22
2023-03-29T17:04:12.084Z,3.20
2023-03-29T17:06:39.696Z,4.00
2023-03-29T17:09:07.351Z,4.45
2023-03-29T17:11:34.943Z,4.13
2023-03-29T17:14:02.898Z,3.75
2023-03-29T17:16:30.507Z,4.20
2023-03-29T17:19:00.426Z,4.13
2023-03-29T17:21:30.798Z,3.42
2023-03-29T17:23:58.360Z,3.67
2023-03-29T17:26:26.118Z,3.70
2023-03-29T17:28:53.874Z,3.15
2023-03-29T17:31:21.566Z,3.05
2023-03-29T17:33:51.950Z,3.30
2023-03-29T17:36:24.239Z,2.65
2023-03-29T17:38:52.300Z,2.33
2023-03-29T17:41:21.530Z,2.83
2023-03-29T17:43:50.832Z,2.80
2023-03-29T17:46:22.943Z,2.50
2023-03-29T17:48:52.860Z,2.40
2023-03-29T17:51:20.657Z,2.33
2023-03-29T17:53:48.562Z,2.28
2023-03-29T17:56:22.878Z,2.20
2023-03-29T17:58:51.377Z,2.83
2023-03-29T18:01:19.871Z,2.80
2023-03-29T18:03:51.604Z,2.95
2023-03-29T18:06:22.683Z,2.80
2023-03-29T18:08:56.710Z,2.90
2023-03-29T18:11:25.852Z,2.90
2023-03-29T18:13:54.720Z,2.90
2023-03-29T18:16:22.526Z,3.50
2023-03-29T18:18:53.097Z,3.60
2023-03-29T18:21:21.024Z,3.78
2023-03-29T18:23:49.952Z,3.92
2023-03-29T18:26:18.081Z,4.57
2023-03-29T18:28:49.386Z,4.32
2023-03-29T18:31:19.808Z,4.45
2023-03-29T18:33:47.975Z,4.47
2023-03-29T18:36:16.188Z,4.55
2023-03-29T18:38:47.128Z,4.00
2023-03-29T18:41:15.680Z,4.10
2023-03-29T18:44:23.072Z,4.13
2023-03-29T18:46:50.578Z,4.03
2023-03-29T18:49:19.042Z,3.83
2023-03-29T18:51:47.696Z,4.38
2023-03-29T18:54:15.298Z,4.35
2023-03-29T18:56:43.405Z,4.30
2023-03-29T18:59:11.400Z,4.30
2023-03-29T19:01:39.181Z,4.07
2023-03-29T19:04:06.865Z,4.10
2023-03-29T19:06:34.455Z,4.05
2023-03-29T19:09:04.164Z,4.35
2023-03-29T19:11:31.858Z,4.50
2023-03-29T19:13:59.343Z,4.50
2023-03-29T19:16:27.557Z,4.65
2023-03-29T19:18:57.128Z,4.50
2023-03-29T19:21:24.756Z,4.50
2023-03-29T19:23:52.974Z,4.40
2023-03-29T19:26:20.645Z,4.35
2023-03-29T19:28:48.070Z,4.15
2023-03-29T19:31:18.086Z,4.22
2023-03-29T19:33:46.874Z,4.55
2023-03-29T19:36:15.301Z,4.03
2023-03-29T19:38:42.861Z,4.18
2023-03-29T19:41:16.487Z,4.38
2023-03-29T19:43:43.997Z,4.47
2023-03-29T19:46:12.850Z,5.18
2023-03-29T19:48:40.539Z,5.10
2023-03-29T19:51:08.876Z,4.70
2023-03-29T19:53:38.628Z,4.95
2023-03-29T19:56:11.100Z,4.13
2023-03-29T19:58:38.896Z,4.47
2023-03-29T20:01:06.600Z,4.65
2023-03-29T20:03:34.438Z,5.13
2023-03-29T20:06:02.589Z,5.03
2023-03-29T20:08:30.605Z,4.95
2023-03-29T20:11:02.107Z,4.80
2023-03-29T20:13:38.035Z,5.00
2023-03-29T20:16:15.912Z,5.00
2023-03-29T20:18:45.700Z,4.90
2023-03-29T20:21:16.704Z,4.97
2023-03-29T20:23:47.735Z,5.15
2023-03-29T20:26:15.458Z,4.65
2023-03-29T20:28:42.949Z,5.45
2023-03-29T20:31:11.006Z,5.35
2023-03-29T20:33:39.545Z,5.30
2023-03-29T20:36:08.731Z,5.28
2023-03-29T20:38:36.685Z,5.43
2023-03-29T20:41:06.095Z,5.65
2023-03-29T20:43:37.503Z,5.57
2023-03-29T20:46:22.345Z,5.40
2023-03-29T20:48:56.041Z,5.40
2023-03-29T20:51:30.276Z,5.50
2023-03-29T20:54:02.789Z,6.45
2023-03-29T20:56:40.156Z,6.22
2023-03-29T20:59:10.588Z,5.43
2023-03-29T21:01:40.546Z,5.82
2023-03-29T21:04:10.672Z,5.53
2023-03-29T21:06:40.936Z,5.53
2023-03-29T21:09:08.512Z,5.53
2023-03-29T21:11:36.008Z,6.00
2023-03-29T21:14:04.142Z,5.30
2023-03-29T21:16:33.933Z,5.78
2023-03-29T21:19:01.588Z,6.15
2023-03-29T21:21:31.837Z,6.05
2023-03-29T21:23:59.385Z,5.88
2023-03-29T21:26:27.033Z,5.95
2023-03-29T21:28:54.915Z,5.55
2023-03-29T21:31:22.491Z,5.97
2023-03-29T21:33:50.227Z,6.00
2023-03-29T21:36:17.776Z,5.55
2023-03-29T21:38:45.998Z,5.80
2023-03-29T21:41:13.732Z,5.80
2023-03-29T21:43:41.385Z,6.07
2023-03-29T21:46:09.839Z,5.50
2023-03-29T21:48:38.059Z,6.38
2023-03-29T21:51:06.451Z,5.53
2023-03-29T21:53:35.101Z,5.60
2023-03-29T21:56:03.153Z,5.60
2023-03-29T21:58:31.764Z,5.47
2023-03-29T22:00:59.502Z,5.70
2023-03-29T22:03:27.115Z,5.30
2023-03-29T22:06:01.201Z,4.82
2023-03-29T22:08:30.029Z,5.20
2023-03-29T22:10:57.678Z,4.82
2023-03-29T22:13:28.494Z,5.35
2023-03-29T22:16:03.923Z,4.70
2023-03-29T22:18:42.457Z,4.68
2023-03-29T22:21:24.317Z,4.88
2023-03-29T22:26:29.883Z,4.20
2023-03-29T22:28:59.990Z,4.40
2023-03-29T22:31:29.788Z,4.15
2023-03-29T22:33:58.491Z,4.22
2023-03-29T22:36:31.174Z,4.45
2023-03-29T22:38:58.740Z,3.83
2023-03-29T22:41:28.325Z,4.43
2023-03-29T22:43:59.007Z,4.28
2023-03-29T22:46:27.643Z,3.83
2023-03-29T22:48:55.739Z,4.28
2023-03-29T22:51:23.314Z,4.40
2023-03-29T22:53:50.964Z,3.83
2023-03-29T22:56:18.637Z,3.72
2023-03-29T22:58:46.261Z,3.83
2023-03-29T23:01:14.045Z,3.70
2023-03-29T23:03:41.812Z,3.72
2023-03-29T23:06:09.411Z,3.67
2023-03-29T23:08:37.125Z,3.58
2023-03-29T23:11:05.004Z,3.80
2023-03-29T23:13:33.468Z,3.65
2023-03-29T23:16:03.589Z,3.50
2023-03-29T23:18:34.877Z,3.38
2023-03-29T23:21:05.669Z,3.78
2023-03-29T23:23:33.856Z,3.40
2023-03-29T23:26:02.535Z,3.53
2023-03-29T23:28:34.549Z,3.33
2023-03-29T23:31:09.878Z,3.25
2023-03-29T23:33:41.408Z,3.80
2023-03-29T23:36:13.594Z,3.75
2023-03-29T23:38:42.333Z,3.60
2023-03-29T23:41:13.062Z,3.92
2023-03-29T23:43:43.639Z,3.43
2023-03-29T23:46:15.381Z,3.58
2023-03-29T23:48:50.808Z,3.35
2023-03-29T23:51:22.912Z,3.88
2023-03-29T23:53:51.770Z,3.17
2023-03-29T23:56:19.358Z,3.50
2023-03-29T23:58:47.307Z,3.63
